Time;durP1;ratioP1;P1;durP2;ratioP2;P2;SDS_P1;SDS_P2;PMS_P1;PMS_P2;Temp;Humidity;BMP_temperature;BMP_pressure;BME280_temperature;BME280_humidity;BME280_pressure;Samples;Min_cycle;Max_cycle;Signal;HPM_P1;HPM_P2
2024/01/14 00:01:18;;;;;;;;;67.00;46.25;;;;;0.51;72.24;101713.78;4995384;28;45254;-39
2024/01/14 00:03:43;;;;;;;;;55.00;43.25;;;;;0.43;72.07;101697.53;4994988;28;47023;-38
2024/01/14 00:06:08;;;;;;;;;50.75;37.50;;;;;0.45;72.02;101693.06;4995044;28;45329;-38
2024/01/14 00:08:34;;;;;;;;;58.50;46.50;;;;;0.45;71.82;101691.28;4995119;28;45330;-39
2024/01/14 00:10:59;;;;;;;;;35.25;28.50;;;;;0.51;71.92;101703.31;4995099;28;45431;-38
2024/01/14 00:13:24;;;;;;;;;69.75;47.50;;;;;0.45;71.88;101691.28;4994943;28;45504;-39
2024/01/14 00:15:50;;;;;;;;;52.00;41.00;;;;;0.41;72.04;101679.22;4994825;28;45362;-39
2024/01/14 00:18:15;;;;;;;;;61.25;42.25;;;;;0.41;71.63;101684.47;4993722;28;45238;-39
2024/01/14 00:20:40;;;;;;;;;51.75;39.25;;;;;0.39;71.72;101683.69;4993078;28;45440;-40
2024/01/14 00:23:06;;;;;;;;;52.75;41.75;;;;;0.39;71.88;101669.75;4994520;28;46840;-38
2024/01/14 00:25:31;;;;;;;;;51.00;45.25;;;;;0.42;72.46;101664.38;4994741;28;45673;-38
2024/01/14 00:27:57;;;;;;;;;62.00;39.50;;;;;0.40;71.35;101664.44;4993618;28;45365;-39
2024/01/14 00:30:22;;;;;;;;;35.75;29.75;;;;;0.43;71.36;101659.09;4994805;28;45359;-39
2024/01/14 00:32:47;;;;;;;;;56.25;39.00;;;;;0.44;71.66;101644.25;4994756;28;45419;-40
2024/01/14 00:35:13;;;;;;;;;51.50;41.75;;;;;0.44;71.72;101642.47;4994799;28;45480;-39
2024/01/14 00:37:38;;;;;;;;;44.75;32.25;;;;;0.41;71.71;101633.88;4994149;28;45462;-40
2024/01/14 00:40:07;;;;;;;;;40.50;28.00;;;;;0.44;71.55;101633.78;4994826;28;45321;-38
2024/01/14 00:42:32;;;;;;;;;51.00;38.50;;;;;0.42;71.06;101640.81;4994310;28;47293;-40
2024/01/14 00:44:58;;;;;;;;;44.50;37.00;;;;;0.38;71.53;101627.03;5009712;28;45349;-39
2024/01/14 00:47:23;;;;;;;;;50.50;34.25;;;;;0.34;71.10;101624.56;4994497;28;45424;-39
2024/01/14 00:49:49;;;;;;;;;49.50;34.00;;;;;0.29;71.93;101614.28;4994531;28;45613;-39
2024/01/14 00:52:14;;;;;;;;;39.75;27.50;;;;;0.24;71.60;101635.38;4994577;28;45694;-39
2024/01/14 00:54:40;;;;;;;;;54.25;38.50;;;;;0.22;72.10;101603.22;4993045;28;45388;-39
2024/01/14 00:57:07;;;;;;;;;49.50;30.25;;;;;0.26;71.41;101600.47;4994560;28;45391;-41
2024/01/14 00:59:33;;;;;;;;;43.00;35.00;;;;;0.26;71.85;101595.25;4994502;28;45358;-38
2024/01/14 01:01:58;;;;;;;;;39.50;29.00;;;;;0.24;71.60;101583.06;4993952;28;46058;-39
2024/01/14 01:04:24;;;;;;;;;35.75;29.25;;;;;0.26;71.30;101583.00;4992946;28;45479;-39
2024/01/14 01:06:49;;;;;;;;;33.75;24.75;;;;;0.23;71.29;101591.81;4994015;28;45416;-40
2024/01/14 01:09:15;;;;;;;;;42.75;35.50;;;;;0.20;72.09;101588.47;4994670;28;45421;-39
2024/01/14 01:11:40;;;;;;;;;37.50;32.25;;;;;0.12;71.56;101582.69;4993897;27;46358;-39
2024/01/14 01:14:05;;;;;;;;;47.25;33.00;;;;;0.08;71.70;101584.56;4994025;28;45385;-39
2024/01/14 01:16:31;;;;;;;;;40.00;30.00;;;;;0.09;72.22;101586.28;4994384;28;45429;-39
2024/01/14 01:18:56;;;;;;;;;35.00;30.50;;;;;0.09;71.73;101599.38;4994528;28;45457;-39
2024/01/14 01:21:22;;;;;;;;;31.50;25.50;;;;;0.06;71.91;101593.38;4993847;28;45359;-39
2024/01/14 01:23:48;;;;;;;;;49.00;30.25;;;;;-0.04;71.66;101593.75;4994075;28;45205;-38
2024/01/14 01:26:13;;;;;;;;;35.75;30.75;;;;;0.11;71.34;101608.00;4993904;28;45349;-39
2024/01/14 01:28:39;;;;;;;;;36.25;27.25;;;;;0.07;71.79;101600.31;4994271;28;45326;-39
2024/01/14 01:31:05;;;;;;;;;44.00;30.50;;;;;-0.08;72.38;101580.84;4994029;28;45972;-40
2024/01/14 01:33:30;;;;;;;;;36.25;30.50;;;;;-0.07;72.63;101583.41;4992398;28;45454;-39
2024/01/14 01:35:55;;;;;;;;;47.75;27.75;;;;;-0.04;72.45;101590.28;4994160;28;45323;-39
2024/01/14 01:38:21;;;;;;;;;35.25;28.00;;;;;-0.01;72.76;101587.53;4994072;28;45473;-39
2024/01/14 01:40:47;;;;;;;;;56.50;37.00;;;;;-0.01;71.99;101593.59;4993637;28;46671;-39
2024/01/14 01:43:13;;;;;;;;;44.50;36.25;;;;;-0.02;71.88;101599.75;4993570;28;45452;-38
2024/01/14 01:45:38;;;;;;;;;32.50;29.75;;;;;0.04;72.55;101588.19;4993783;28;45305;-39
2024/01/14 01:48:04;;;;;;;;;38.75;26.75;;;;;0.07;71.68;101572.38;4993851;28;45396;-39
2024/01/14 01:50:32;;;;;;;;;34.50;29.50;;;;;0.06;71.78;101562.00;4993479;28;46474;-39
2024/01/14 01:52:58;;;;;;;;;39.25;30.50;;;;;0.07;71.85;101580.25;4993713;28;45459;-39
2024/01/14 01:55:24;;;;;;;;;47.25;30.25;;;;;-0.01;72.56;101567.44;4993528;28;45444;-39
2024/01/14 01:57:50;;;;;;;;;41.75;31.50;;;;;0.02;72.12;101576.97;4993914;28;45310;-39
2024/01/14 02:00:16;;;;;;;;;38.50;27.50;;;;;0.01;72.35;101569.19;4993552;28;46450;-38
2024/01/14 02:02:42;;;;;;;;;38.00;30.00;;;;;0.05;71.97;101571.63;4994244;28;45383;-38
2024/01/14 02:05:09;;;;;;;;;41.25;30.25;;;;;0.09;72.49;101556.66;4993728;28;45384;-38
2024/01/14 02:07:34;;;;;;;;;37.00;27.75;;;;;0.11;72.24;101553.06;4993462;28;45359;-39
2024/01/14 02:10:00;;;;;;;;;50.25;29.25;;;;;0.14;72.34;101550.31;4993454;28;45500;-38
2024/01/14 02:12:26;;;;;;;;;30.25;27.00;;;;;0.20;71.59;101554.44;4993339;28;45441;-39
2024/01/14 02:14:51;;;;;;;;;38.00;30.75;;;;;0.18;71.54;101559.75;4992169;28;45324;-39
2024/01/14 02:17:16;;;;;;;;;37.75;25.75;;;;;0.14;71.54;101550.31;4993757;28;45494;-40
2024/01/14 02:19:42;;;;;;;;;39.50;28.75;;;;;0.12;72.07;101546.06;4993119;28;46356;-39
2024/01/14 02:22:10;;;;;;;;;45.50;34.50;;;;;0.14;72.06;101550.31;4993076;28;45347;-39
2024/01/14 02:24:38;;;;;;;;;36.50;26.00;;;;;0.13;71.78;101530.31;4993185;28;45412;-38
2024/01/14 02:27:04;;;;;;;;;28.00;21.75;;;;;0.18;72.07;101540.59;4993392;28;45306;-39
2024/01/14 02:29:30;;;;;;;;;28.25;23.00;;;;;0.22;71.48;101534.31;4993100;28;46970;-40
2024/01/14 02:31:56;;;;;;;;;37.50;22.50;;;;;0.11;71.48;101519.03;4993038;28;45310;-39
2024/01/14 02:34:22;;;;;;;;;32.00;23.25;;;;;0.12;71.59;101531.19;4993304;28;45280;-40
2024/01/14 02:36:47;;;;;;;;;33.75;22.75;;;;;0.09;71.71;101528.72;4993575;28;45268;-40
2024/01/14 02:39:13;;;;;;;;;26.00;23.00;;;;;0.16;71.06;101527.56;4992925;28;45227;-39
2024/01/14 02:41:38;;;;;;;;;37.25;25.00;;;;;0.13;71.65;101524.22;4992601;28;45313;-40
2024/01/14 02:44:04;;;;;;;;;30.25;24.75;;;;;0.07;71.16;101509.59;4993556;28;45275;-39
2024/01/14 02:46:30;;;;;;;;;32.50;23.50;;;;;0.13;71.21;101512.00;4996039;28;45299;-40
2024/01/14 02:48:57;;;;;;;;;41.75;28.75;;;;;0.16;71.13;101511.84;4995719;28;46444;-39
2024/01/14 02:51:22;;;;;;;;;30.75;21.25;;;;;0.12;71.08;101502.44;4995676;28;45355;-39
2024/01/14 02:53:48;;;;;;;;;32.50;24.50;;;;;0.05;71.98;101493.13;4996189;28;45369;-39
2024/01/14 02:56:13;;;;;;;;;39.50;30.25;;;;;0.08;71.91;101493.00;4995910;28;45299;-38
2024/01/14 02:58:38;;;;;;;;;34.25;30.25;;;;;0.15;71.58;101489.22;4995722;28;46128;-38
2024/01/14 03:01:04;;;;;;;;;34.00;25.25;;;;;0.22;71.19;101490.69;4995610;28;45460;-40
2024/01/14 03:03:29;;;;;;;;;31.50;24.75;;;;;0.19;71.74;101484.72;4995776;28;45377;-40
2024/01/14 03:05:55;;;;;;;;;29.00;21.00;;;;;0.24;71.29;101491.47;4996259;28;45385;-38
2024/01/14 03:08:20;;;;;;;;;36.50;27.75;;;;;0.25;71.81;101487.09;4995618;28;45451;-39
2024/01/14 03:10:45;;;;;;;;;35.25;25.00;;;;;0.27;71.86;101480.03;4995471;28;45442;-39
2024/01/14 03:13:15;;;;;;;;;29.50;20.75;;;;;0.26;71.90;101478.34;4995842;28;45453;-40
2024/01/14 03:15:43;;;;;;;;;40.25;32.50;;;;;0.35;71.47;101479.72;4995614;28;45537;-40
2024/01/14 03:18:09;;;;;;;;;38.75;31.00;;;;;0.36;71.75;101484.88;4994000;28;47406;-39
2024/01/14 03:20:35;;;;;;;;;31.50;25.00;;;;;0.35;71.55;101474.50;4995365;28;45445;-39
2024/01/14 03:23:00;;;;;;;;;35.00;29.50;;;;;0.42;71.31;101483.78;4995542;28;45416;-38
2024/01/14 03:25:25;;;;;;;;;39.00;28.50;;;;;0.44;70.90;101482.81;4995725;28;45484;-38
2024/01/14 03:27:51;;;;;;;;;34.25;22.00;;;;;0.47;71.22;101479.22;4995730;28;46154;-40
2024/01/14 03:30:17;;;;;;;;;45.50;31.75;;;;;0.47;70.82;101481.84;4994631;28;45696;-40
2024/01/14 03:32:43;;;;;;;;;38.75;30.00;;;;;0.36;70.07;101468.34;5011046;28;45258;-40
2024/01/14 03:35:08;;;;;;;;;40.00;27.50;;;;;0.40;70.62;101468.13;4995676;28;45431;-39
2024/01/14 03:37:34;;;;;;;;;44.00;30.50;;;;;0.39;70.84;101479.53;4995251;28;45735;-38
2024/01/14 03:40:01;;;;;;;;;35.00;24.25;;;;;0.34;70.70;101476.25;5010495;28;45433;-39
2024/01/14 03:42:26;;;;;;;;;40.75;31.00;;;;;0.36;70.43;101474.41;4995479;28;45283;-39
2024/01/14 03:44:52;;;;;;;;;50.00;32.50;;;;;0.32;70.59;101472.00;4995536;28;45488;-40
2024/01/14 03:47:17;;;;;;;;;41.25;30.75;;;;;0.35;70.49;101461.41;4995378;28;45510;-37
2024/01/14 03:49:42;;;;;;;;;48.25;29.00;;;;;0.28;70.75;101459.94;4995021;28;45503;-39
2024/01/14 03:52:08;;;;;;;;;43.00;26.25;;;;;0.20;70.33;101460.25;4995290;27;45432;-38
2024/01/14 03:54:33;;;;;;;;;32.75;20.00;;;;;0.15;70.50;101451.75;4995433;27;45547;-39
2024/01/14 03:56:59;;;;;;;;;43.50;31.50;;;;;0.07;70.16;101453.81;4993885;28;45889;-40
2024/01/14 03:59:24;;;;;;;;;29.50;18.50;;;;;0.06;71.40;101452.97;4994922;28;45333;-39
2024/01/14 04:01:49;;;;;;;;;45.50;34.50;;;;;-0.03;71.38;101432.44;4995375;28;45394;-39
2024/01/14 04:04:15;;;;;;;;;25.00;21.00;;;;;0.05;71.16;101440.81;4995354;28;45384;-39
2024/01/14 04:06:40;;;;;;;;;44.50;30.75;;;;;-0.09;70.83;101411.75;4995037;28;46203;-39
2024/01/14 04:09:05;;;;;;;;;45.50;36.50;;;;;-0.05;70.76;101432.47;4995038;28;45397;-39
2024/01/14 04:11:31;;;;;;;;;38.00;29.25;;;;;-0.07;71.42;101416.00;4994898;28;45398;-38
2024/01/14 04:13:56;;;;;;;;;38.75;27.50;;;;;-0.05;71.10;101413.31;4995279;28;45316;-37
2024/01/14 04:16:22;;;;;;;;;30.75;25.50;;;;;-0.01;70.90;101410.50;4994816;28;46451;-39
2024/01/14 04:18:47;;;;;;;;;50.25;30.50;;;;;-0.06;71.21;101411.63;5010161;28;45405;-39
2024/01/14 04:21:23;;;;;;;;;40.50;30.00;;;;;-0.14;71.43;101404.09;4994802;28;45469;-37
2024/01/14 04:23:50;;;;;;;;;38.00;32.50;;;;;-0.13;70.96;101408.41;4995043;28;45346;-38
2024/01/14 04:26:22;;;;;;;;;38.25;30.75;;;;;-0.11;71.21;101403.97;4994753;28;46375;-39
2024/01/14 04:28:52;;;;;;;;;38.00;27.50;;;;;-0.14;71.10;101395.41;4994886;28;45443;-38
2024/01/14 04:31:18;;;;;;;;;36.50;31.00;;;;;-0.27;71.27;101392.41;4993440;28;45522;-38
2024/01/14 04:33:45;;;;;;;;;47.75;36.75;;;;;-0.23;71.74;101382.69;4994975;28;45421;-38
2024/01/14 04:36:10;;;;;;;;;35.25;31.25;;;;;-0.19;71.20;101389.50;4994585;28;46664;-39
2024/01/14 04:38:36;;;;;;;;;37.75;25.50;;;;;-0.16;71.58;101399.84;4994425;28;45314;-39
2024/01/14 04:41:02;;;;;;;;;67.00;46.75;;;;;-0.24;71.26;101383.63;4994592;28;45344;-39
2024/01/14 04:43:28;;;;;;;;;73.33;58.00;;;;;-0.10;71.93;101396.97;4994540;28;45360;-39
2024/01/14 04:45:53;;;;;;;;;36.25;27.25;;;;;-0.15;71.38;101389.31;4994166;28;45435;-38
2024/01/14 04:48:18;;;;;;;;;43.25;36.50;;;;;-0.09;71.12;101398.66;4994258;28;45422;-37
2024/01/14 04:50:44;;;;;;;;;49.75;36.00;;;;;-0.14;71.55;101396.25;4994500;28;45443;-38
2024/01/14 04:53:09;;;;;;;;;42.50;29.00;;;;;-0.16;71.46;101389.38;4994733;28;45321;-39
2024/01/14 04:55:34;;;;;;;;;43.50;31.50;;;;;-0.14;71.15;101395.41;4994231;28;45412;-37
2024/01/14 04:58:00;;;;;;;;;47.75;28.00;;;;;-0.15;70.70;101381.47;4994321;28;45463;-39
2024/01/14 05:00:26;;;;;;;;;48.75;38.75;;;;;-0.16;71.20;101385.00;4994201;28;45377;-38
2024/01/14 05:02:51;;;;;;;;;46.25;34.75;;;;;-0.24;72.10;101370.53;4994463;28;45396;-39
2024/01/14 05:05:17;;;;;;;;;61.75;36.00;;;;;-0.13;71.47;101387.47;4994265;28;46053;-39
2024/01/14 05:07:42;;;;;;;;;42.75;29.00;;;;;-0.20;70.99;101374.75;4993750;28;45400;-38
2024/01/14 05:10:08;;;;;;;;;47.00;35.00;;;;;-0.17;71.94;101388.53;4994375;28;45431;-38
2024/01/14 05:12:34;;;;;;;;;52.00;37.25;;;;;-0.17;71.65;101379.81;4994278;28;45608;-39
2024/01/14 05:14:59;;;;;;;;;40.50;35.00;;;;;-0.20;71.62;101372.97;4993937;28;45516;-40
2024/01/14 05:17:25;;;;;;;;;39.25;27.25;;;;;-0.21;71.29;101363.44;4994002;28;45408;-39
2024/01/14 05:19:51;;;;;;;;;45.25;39.25;;;;;-0.15;71.45;101371.00;4993989;28;45378;-38
2024/01/14 05:22:16;;;;;;;;;32.25;24.25;;;;;-0.08;71.59;101376.84;4994333;28;45433;-38
2024/01/14 05:24:42;;;;;;;;;58.25;39.50;;;;;-0.08;71.69;101372.47;4994079;28;45541;-40
2024/01/14 05:27:08;;;;;;;;;37.75;26.75;;;;;-0.08;71.38;101367.25;4993745;28;45373;-39
2024/01/14 05:29:33;;;;;;;;;48.00;32.00;;;;;-0.12;71.66;101368.28;4994039;28;45284;-39
2024/01/14 05:31:58;;;;;;;;;44.75;33.50;;;;;-0.18;71.12;101358.06;4994198;28;45308;-39
2024/01/14 05:34:24;;;;;;;;;39.25;32.75;;;;;-0.17;71.37;101367.63;4993669;28;46264;-39
2024/01/14 05:36:49;;;;;;;;;45.50;38.50;;;;;-0.19;71.53;101364.22;4994088;28;45252;-39
2024/01/14 05:39:15;;;;;;;;;29.00;19.50;;;;;-0.13;71.05;101366.56;4993985;28;45227;-39
2024/01/14 05:41:40;;;;;;;;;47.25;28.50;;;;;-0.15;71.32;101364.94;4993990;28;45185;-40
2024/01/14 05:44:05;;;;;;;;;58.50;34.50;;;;;-0.15;71.73;101360.56;4993662;28;46095;-40
2024/01/14 05:46:31;;;;;;;;;46.25;32.75;;;;;-0.15;71.29;101360.56;4993725;28;45369;-40
2024/01/14 05:48:56;;;;;;;;;47.00;38.25;;;;;-0.17;71.22;101361.50;4993532;28;45302;-39
2024/01/14 05:51:21;;;;;;;;;42.50;28.25;;;;;-0.20;71.45;101366.91;4994036;28;45293;-39
2024/01/14 05:53:47;;;;;;;;;40.00;30.25;;;;;-0.22;71.84;101369.56;4993654;28;46084;-39
2024/01/14 05:56:12;;;;;;;;;23.50;16.75;;;;;-0.19;71.84;101371.19;4993469;28;45383;-39
2024/01/14 05:58:41;;;;;;;;;35.00;31.50;;;;;-0.19;72.18;101369.44;4993681;28;45602;-41
2024/01/14 06:01:07;;;;;;;;;42.25;33.75;;;;;-0.18;72.33;101367.66;4993781;28;45390;-40
2024/01/14 06:03:32;;;;;;;;;28.50;16.75;;;;;-0.17;71.29;101370.25;4993339;28;46190;-40
2024/01/14 06:05:57;;;;;;;;;40.25;33.75;;;;;-0.20;71.97;101351.22;4993601;28;45404;-38
2024/01/14 06:08:22;;;;;;;;;41.75;34.50;;;;;-0.17;72.08;101356.28;4993625;28;45279;-38
2024/01/14 06:10:48;;;;;;;;;61.00;37.00;;;;;-0.08;71.92;101367.25;4993941;27;45233;-39
2024/01/14 06:13:14;;;;;;;;;49.50;33.25;;;;;-0.05;71.25;101363.63;4993162;28;45445;-39
2024/01/14 06:15:39;;;;;;;;;44.75;32.50;;;;;-0.09;70.74;101368.13;4993277;28;45211;-38
2024/01/14 06:18:04;;;;;;;;;43.75;32.00;;;;;-0.09;71.49;101365.50;4993415;28;45381;-38
2024/01/14 06:20:30;;;;;;;;;47.25;34.25;;;;;-0.05;71.47;101355.78;4995994;28;45271;-38
2024/01/14 06:22:55;;;;;;;;;48.75;36.25;;;;;-0.37;71.57;101297.84;4996291;28;46286;-39
2024/01/14 06:25:20;;;;;;;;;55.00;36.00;;;;;-0.07;71.12;101362.84;4996107;28;45412;-38
2024/01/14 06:27:46;;;;;;;;;36.50;27.25;;;;;-0.09;70.91;101359.44;4996202;28;45369;-39
2024/01/14 06:30:12;;;;;;;;;48.75;33.25;;;;;-0.14;71.31;101356.16;4995098;28;45312;-39
2024/01/14 06:32:38;;;;;;;;;40.50;29.50;;;;;-0.20;70.93;101356.44;4996065;28;45413;-39
2024/01/14 06:35:04;;;;;;;;;41.50;30.50;;;;;-0.19;71.45;101363.34;4996095;28;45433;-38
2024/01/14 06:37:29;;;;;;;;;40.25;33.00;;;;;-0.28;71.68;101348.91;4996045;28;45477;-41
2024/01/14 06:39:55;;;;;;;;;47.25;34.00;;;;;-0.19;71.26;101363.34;5011470;28;45401;-40
2024/01/14 06:42:20;;;;;;;;;48.50;32.00;;;;;-0.25;71.03;101361.84;4995771;28;46321;-39
2024/01/14 06:44:45;;;;;;;;;45.25;32.50;;;;;-0.24;70.98;101363.53;4995990;28;45323;-39
2024/01/14 06:47:11;;;;;;;;;37.25;33.00;;;;;-0.24;70.58;101362.69;4996197;28;45353;-39
2024/01/14 06:49:36;;;;;;;;;40.00;30.50;;;;;-0.27;70.94;101358.44;4995931;28;45401;-38
2024/01/14 06:52:01;;;;;;;;;45.75;27.75;;;;;-0.40;71.32;101344.16;4995732;28;46622;-40
2024/01/14 06:54:27;;;;;;;;;32.25;31.25;;;;;-0.37;71.56;101357.13;4995966;28;45366;-39
2024/01/14 06:56:52;;;;;;;;;43.00;27.75;;;;;-0.40;71.35;101347.63;4995822;28;45412;-40
2024/01/14 06:59:18;;;;;;;;;50.50;30.75;;;;;-0.38;71.73;101347.56;4996200;28;45307;-38
2024/01/14 07:01:45;;;;;;;;;31.00;24.75;;;;;-0.35;70.88;101353.50;4995499;28;45504;-40
2024/01/14 07:04:11;;;;;;;;;50.00;31.00;;;;;-0.35;71.33;101347.44;4995568;28;45228;-38
2024/01/14 07:06:36;;;;;;;;;33.50;22.50;;;;;-0.29;71.23;101353.28;4995856;28;45221;-38
2024/01/14 07:09:02;;;;;;;;;38.25;34.50;;;;;-0.31;71.19;101355.09;5010779;28;45215;-39
2024/01/14 07:11:27;;;;;;;;;38.00;29.50;;;;;-0.37;71.49;101344.91;4995479;28;45853;-37
2024/01/14 07:13:52;;;;;;;;;45.50;33.50;;;;;-0.43;71.88;101333.81;4995443;28;45546;-39
2024/01/14 07:16:18;;;;;;;;;45.25;32.00;;;;;-0.30;71.37;101355.94;4995573;28;45434;-39
2024/01/14 07:18:43;;;;;;;;;38.00;28.25;;;;;-0.37;71.79;101337.06;4995891;28;45364;-39
2024/01/14 07:21:10;;;;;;;;;42.75;33.75;;;;;-0.31;71.70;101342.03;4995200;28;46542;-39
2024/01/14 07:23:37;;;;;;;;;35.75;26.75;;;;;-0.30;71.18;101346.31;4995321;28;45378;-39
2024/01/14 07:26:04;;;;;;;;;43.75;27.00;;;;;-0.26;71.41;101347.06;4995438;28;45403;-40
2024/01/14 07:28:30;;;;;;;;;23.75;19.50;;;;;-0.29;70.67;101341.97;4995437;28;45429;-39
2024/01/14 07:30:56;;;;;;;;;46.00;31.75;;;;;-0.30;71.08;101343.72;4995157;28;45355;-39
2024/01/14 07:33:21;;;;;;;;;39.50;32.75;;;;;-0.31;71.46;101343.78;4995280;28;45421;-39
2024/01/14 07:35:46;;;;;;;;;44.00;33.00;;;;;-0.28;71.63;101344.50;4995676;28;45427;-39
2024/01/14 07:38:12;;;;;;;;;41.25;26.50;;;;;-0.26;71.24;101339.22;4995363;28;45603;-39
2024/01/14 07:40:37;;;;;;;;;41.25;32.75;;;;;-0.26;71.37;101342.66;4994929;28;48884;-39
2024/01/14 07:43:03;;;;;;;;;48.00;35.50;;;;;-0.33;71.19;101333.41;5080252;27;45487;-39
2024/01/14 07:45:28;;;;;;;;;35.50;29.50;;;;;-0.34;71.03;101333.44;4995209;28;45314;-38
2024/01/14 07:47:53;;;;;;;;;41.75;34.00;;;;;-0.39;71.94;101340.63;4995319;28;45418;-39
2024/01/14 07:50:19;;;;;;;;;42.75;28.00;;;;;-0.38;71.28;101345.81;5010355;28;48200;-39
2024/01/14 07:52:44;;;;;;;;;30.25;24.75;;;;;-0.39;71.43;101343.25;4995054;28;45393;-47
2024/01/14 07:55:10;;;;;;;;;38.50;26.00;;;;;-0.41;71.91;101352.94;4994954;28;45425;-39
2024/01/14 07:57:35;;;;;;;;;43.00;36.50;;;;;-0.48;71.96;101349.69;4994977;28;45449;-39
2024/01/14 08:00:01;;;;;;;;;41.25;28.00;;;;;-0.46;71.37;101345.28;4994882;28;47163;-36
2024/01/14 08:02:26;;;;;;;;;52.75;33.50;;;;;-0.52;71.56;101342.88;4994316;28;45321;-38
2024/01/14 08:04:51;;;;;;;;;54.50;30.50;;;;;-0.53;71.59;101351.66;4995280;28;45422;-39
2024/01/14 08:07:17;;;;;;;;;48.75;33.00;;;;;-0.53;71.82;101349.88;4995304;28;45365;-39
2024/01/14 08:09:42;;;;;;;;;42.00;28.00;;;;;-0.47;71.75;101354.00;4994645;28;45716;-40
2024/01/14 08:12:08;;;;;;;;;26.00;22.25;;;;;-0.41;71.57;101359.00;4994845;28;45420;-39
2024/01/14 08:14:33;;;;;;;;;38.00;29.25;;;;;-0.40;71.32;101362.47;4994944;28;45340;-39
2024/01/14 08:16:58;;;;;;;;;40.25;34.50;;;;;-0.47;71.50;101347.94;4995076;28;45338;-39
2024/01/14 08:19:24;;;;;;;;;40.50;29.50;;;;;-0.45;71.10;101357.41;4994795;28;45396;-40
2024/01/14 08:21:49;;;;;;;;;48.75;33.25;;;;;-0.46;71.56;101355.72;4994750;28;45425;-39
2024/01/14 08:24:14;;;;;;;;;45.50;27.50;;;;;-0.42;71.29;101352.06;4993807;28;45453;-39
2024/01/14 08:26:46;;;;;;;;;34.75;27.50;;;;;-0.38;71.05;101356.28;4995064;28;45328;-38
2024/01/14 08:29:15;;;;;;;;;33.00;22.75;;;;;-0.47;71.08;101338.31;4994525;28;45880;-39
2024/01/14 08:31:41;;;;;;;;;36.75;28.25;;;;;-0.38;71.30;101358.00;4994553;28;45408;-40
2024/01/14 08:34:07;;;;;;;;;41.50;31.75;;;;;-0.32;71.41;101352.56;4993616;28;45988;-39
2024/01/14 08:36:33;;;;;;;;;35.00;30.00;;;;;-0.36;71.36;101351.81;4994914;28;45346;-39
2024/01/14 08:38:58;;;;;;;;;43.25;27.00;;;;;-0.27;71.77;101356.66;4994362;28;46709;-38
2024/01/14 08:41:24;;;;;;;;;42.75;27.00;;;;;-0.23;71.25;101348.72;4993990;28;45381;-39
2024/01/14 08:43:53;;;;;;;;;36.25;30.50;;;;;-0.32;71.39;101336.88;5044562;27;45451;-39
2024/01/14 08:46:18;;;;;;;;;35.75;30.00;;;;;-0.23;70.98;101352.16;5047561;27;45672;-39
2024/01/14 08:48:44;;;;;;;;;45.25;27.25;;;;;-0.21;71.36;101350.34;5039727;27;47273;-40
2024/01/14 08:51:12;;;;;;;;;41.25;34.25;;;;;-0.23;71.53;101340.88;5048749;27;45212;-38
2024/01/14 08:53:38;;;;;;;;;49.50;33.25;;;;;-0.19;70.88;101345.91;5052390;27;45454;-39
2024/01/14 08:56:03;;;;;;;;;35.25;23.00;;;;;-0.46;71.07;101298.22;5098307;27;45496;-40
2024/01/14 08:58:29;;;;;;;;;42.00;32.75;;;;;-0.20;71.43;101343.38;5097758;27;46979;-39
2024/01/14 09:00:54;;;;;;;;;27.25;25.50;;;;;-0.26;71.11;101332.22;5097828;27;45404;-40
2024/01/14 09:03:20;;;;;;;;;28.00;20.50;;;;;-0.27;71.37;101335.75;5096711;27;45398;-38
2024/01/14 09:05:45;;;;;;;;;46.75;29.00;;;;;-0.27;71.94;101333.13;5097886;27;45488;-40
2024/01/14 09:08:13;;;;;;;;;34.75;29.50;;;;;-0.26;71.46;101319.16;5097640;27;46108;-39
2024/01/14 09:10:38;;;;;;;;;35.00;26.50;;;;;-0.26;71.20;101315.69;5097672;27;45518;-38
2024/01/14 09:13:04;;;;;;;;;40.75;31.00;;;;;-0.28;71.26;101320.13;5097768;27;45325;-38
2024/01/14 09:15:30;;;;;;;;;32.00;24.50;;;;;-0.34;71.22;101309.91;5097670;27;45369;-39
2024/01/14 09:17:55;;;;;;;;;36.00;32.50;;;;;-0.39;71.13;101302.28;5097387;27;45310;-40
2024/01/14 09:20:21;;;;;;;;;37.75;24.50;;;;;-0.43;72.00;101310.31;5060763;27;45358;-38
2024/01/14 09:22:46;;;;;;;;;41.75;28.75;;;;;-0.47;71.97;101303.50;5046822;27;45572;-40
2024/01/14 09:25:11;;;;;;;;;45.75;29.00;;;;;-0.42;71.98;101306.78;5040173;27;46043;-39
2024/01/14 09:27:37;;;;;;;;;43.00;30.00;;;;;-0.40;72.00;101294.50;5049827;27;46127;-38
2024/01/14 09:30:02;;;;;;;;;38.25;30.25;;;;;-0.44;72.01;101283.31;5043671;27;45421;-39
2024/01/14 09:32:28;;;;;;;;;38.25;29.75;;;;;-0.29;71.66;101305.38;5042060;27;45464;-40
2024/01/14 09:34:55;;;;;;;;;35.00;28.50;;;;;-0.29;72.05;101292.31;5079662;27;45517;-40
2024/01/14 09:37:20;;;;;;;;;51.75;34.25;;;;;-0.29;71.45;101301.00;5097578;27;46043;-39
2024/01/14 09:39:45;;;;;;;;;38.25;22.75;;;;;-0.33;71.55;101296.81;5097445;27;45381;-40
2024/01/14 09:42:30;;;;;;;;;47.50;28.25;;;;;-0.24;71.79;101300.81;5097351;27;45313;-39
2024/01/14 09:45:02;;;;;;;;;46.25;34.25;;;;;-0.24;71.86;101306.03;5097438;27;45425;-40
2024/01/14 09:47:31;;;;;;;;;46.75;36.25;;;;;-0.23;71.71;101293.81;5097100;27;45647;-39
2024/01/14 09:49:59;;;;;;;;;33.00;27.00;;;;;-0.26;71.15;101305.22;5072018;28;45495;-39
2024/01/14 09:52:25;;;;;;;;;43.50;26.50;;;;;-0.29;71.91;101292.31;5056420;28;45382;-40
2024/01/14 09:54:53;;;;;;;;;61.75;42.00;;;;;-0.24;71.30;101305.19;5055798;28;45476;-39
2024/01/14 09:57:20;;;;;;;;;43.75;32.00;;;;;-0.24;71.56;101286.88;5056209;28;46170;-40
2024/01/14 09:59:48;;;;;;;;;51.50;34.00;;;;;-0.19;71.78;101290.16;5056083;28;45390;-40
2024/01/14 10:02:14;;;;;;;;;56.25;31.75;;;;;-0.14;71.25;101291.63;5056165;28;45324;-38
2024/01/14 10:04:40;;;;;;;;;54.75;42.25;;;;;-0.08;70.87;101296.63;5056437;28;45272;-39
2024/01/14 10:07:09;;;;;;;;;46.75;30.50;;;;;-0.11;70.86;101278.44;5056120;28;46193;-39
2024/01/14 10:09:35;;;;;;;;;38.00;32.00;;;;;-0.03;70.47;101275.50;5056131;28;45378;-40
2024/01/14 10:12:01;;;;;;;;;41.75;32.50;;;;;0.07;70.94;101289.03;5054918;28;45394;-39
2024/01/14 10:14:27;;;;;;;;;32.00;23.50;;;;;0.13;70.44;101283.56;5056086;28;45421;-38
2024/01/14 10:16:58;;;;;;;;;40.50;30.25;;;;;0.14;70.30;101274.78;5055742;28;47195;-44
2024/01/14 10:19:24;;;;;;;;;53.00;38.00;;;;;0.16;70.33;101278.16;5055723;28;45453;-39
2024/01/14 10:21:54;;;;;;;;;44.75;41.25;;;;;0.11;69.94;101272.28;5055910;28;45474;-39
2024/01/14 10:24:23;;;;;;;;;45.75;36.50;;;;;0.10;70.19;101270.59;5055923;28;45170;-39
2024/01/14 10:26:55;;;;;;;;;41.50;30.25;;;;;0.13;70.47;101275.69;5055655;28;45405;-38
2024/01/14 10:29:22;;;;;;;;;44.00;28.75;;;;;0.17;70.59;101266.78;5055692;28;45404;-39
2024/01/14 10:31:48;;;;;;;;;48.50;38.00;;;;;0.13;70.54;101250.38;5054744;28;45251;-40
2024/01/14 10:34:17;;;;;;;;;53.25;41.25;;;;;0.19;69.64;101254.50;5055863;28;45615;-40
2024/01/14 10:36:43;;;;;;;;;46.50;37.25;;;;;0.31;70.24;101263.56;5055493;28;46188;-40
2024/01/14 10:39:11;;;;;;;;;48.50;41.00;;;;;0.38;70.32;101258.00;5055582;28;45500;-40
2024/01/14 10:41:36;;;;;;;;;52.50;32.00;;;;;0.40;70.03;101260.53;5055635;28;45369;-41
2024/01/14 10:44:01;;;;;;;;;51.75;39.25;;;;;0.44;69.46;101255.09;5055815;28;45292;-39
2024/01/14 10:46:34;;;;;;;;;49.50;39.00;;;;;0.46;68.96;101249.78;5055296;28;45613;-39
2024/01/14 10:49:09;;;;;;;;;41.00;38.25;;;;;0.41;69.37;101249.13;5079555;27;45424;-40
2024/01/14 10:51:40;;;;;;;;;53.50;42.75;;;;;0.28;69.49;101229.69;5096393;27;45352;-39
2024/01/14 10:54:38;;;;;;;;;61.50;45.00;;;;;0.36;70.09;101238.88;5096403;27;45419;-40
2024/01/14 10:57:28;;;;;;;;;47.75;34.00;;;;;0.42;69.34;101232.50;5053073;28;46382;-39
2024/01/14 10:59:57;;;;;;;;;54.50;38.50;;;;;0.45;69.37;101230.59;5052888;28;45407;-40
2024/01/14 11:02:25;;;;;;;;;67.00;42.75;;;;;0.51;69.83;101229.50;5052995;28;45476;-40
2024/01/14 11:04:51;;;;;;;;;72.00;50.00;;;;;0.57;69.38;101212.66;5053741;28;45594;-40
2024/01/14 11:07:16;;;;;;;;;55.25;43.75;;;;;0.64;69.73;101209.69;5039505;28;45543;-40